Evansville Regional (EVV)

 

Airport Diagram
Current Weather/Forecast (MVFR Conditions)
METAR KEVV 251725Z 36009KT 3SM +RA BR OVC010 03/01 A2986 RMK AO2 P0014 T00330011 $
TAF KEVV 251707Z 2517/2612 06009KT 2SM RA BR OVC006 FM251800 07011G20KT 3SM RA BR OVC004 FM260000 10009KT 4SM BR VCSH OVC004 FM260600 VRB04KT 3SM BR OVC003

Airport Information

All Charts
General
Chart Name View
AIRPORT DIAGRAM
AIRPORT DIAGRAM
TAKEOFF MINIMUMS
ALTERNATE MINIMUMS
RADAR MINIMUMS
TAKEOFF MINIMUMS
ALTERNATE MINIMUMS
RADAR MINIMUMS
HOT SPOT
HOT SPOT

Approaches
Chart Name Download
ILS OR LOC RWY 04
ILS OR LOC RWY 22
RNAV (GPS) RWY 04
RNAV (GPS) RWY 18
RNAV (GPS) RWY 22
RNAV (GPS) RWY 36
VOR RWY 04
ILS OR LOC RWY 04
ILS OR LOC RWY 22
RNAV (GPS) RWY 04
RNAV (GPS) RWY 18
RNAV (GPS) RWY 22
RNAV (GPS) RWY 36
VOR RWY 04


Airport Statistics
Departures Arrivals Local
All Collected Stats since June 2016: 158 155 3
2021 Stats: 14 12 1
January Stats: 14 12 1

Inbound Traffic (Arrivals) - 0

No inbound traffic.


Outbound Traffic (Departures) - 0

No outbound traffic.


Local Traffic (Pattern) - 0

No local traffic.